Latest Coastal Weather Observations for Yarram Airport

IDV60701

Issued at 11:41 pm EST Friday 31 July 2015 (issued every 10 minutes, with the page automatically refreshed every 10 minutes)

About coastal observations | Map of coastal stations | Coastal observations for VIC | Marine services | Other Formats
Station Details ID: 085151 Name: YARRAM AIRPORT Lat: -38.56 Lon: 146.75 Height: 17.9 m
Data from the previous 72 hours. | See also: Recent months at Yarram Airport
Date/Time
EST
Temp

°C
Wind Pressure Rain
since 9am
mm
Weather Cloud Vis
km
Sea
Height
m
Swell
Dir
 
Speed
knots
Gust
knots
hPa Trend Height
m
Period
s
Dir
31/11:30pm 3.6 WNW 5 7 1013.1 - 0.0 - - - - - - -
31/11:00pm 3.5 WNW 7 9 1013.7 - 0.0 - - - - - - -
31/10:30pm 3.7 N 4 5 1013.8 - 0.0 - - - - - - -
31/10:00pm 3.9 NNE 7 9 1013.9 - 0.0 - - - - - - -
31/09:30pm 4.8 NNE 7 8 1014.3 - 0.0 - - - - - - -
31/09:00pm 5.3 NNE 8 9 1014.9 - 0.0 - - - - - - -
31/08:30pm 4.0 NNE 8 9 1015.4 - 0.0 - - - - - - -
31/08:00pm 2.8 NE 5 6 1015.7 - 0.0 - - - - - - -
31/07:30pm 2.5 NNE 4 5 1016.2 - 0.0 - - - - - - -
31/07:00pm 4.4 CALM 0 0 1016.3 - 0.0 - - - - - - -
31/06:30pm 4.5 N 3 4 1016.2 - 0.0 - - - - - - -
31/06:00pm 6.7 N 3 5 1015.8 - 0.0 - - - - - - -
31/05:30pm 7.9 ENE 2 6 1015.7 - 0.0 - - - - - - -
31/05:00pm 11.1 CALM 0 0 1015.8 - 0.0 - - - - - - -
31/04:30pm 11.5 CALM 0 0 1015.8 - 0.0 - - - - - - -
31/04:00pm 13.1 NW 1 4 1016.4 - 0.0 - - - - - - -
31/03:30pm 12.6 N 5 6 1016.5 - 0.0 - - - - - - -
31/03:00pm 12.6 NW 6 8 1017.1 - 0.0 - - - - - - -
31/02:30pm 12.9 NW 6 10 1017.2 - 0.0 - - - - - - -
31/02:00pm 11.9 WNW 7 9 1017.5 - 0.0 - - - - - - -
31/01:30pm 11.5 WNW 8 11 1018.2 - 0.0 - - - - - - -
31/01:00pm 11.0 W 10 13 1018.6 - 0.0 - - - - - - -
31/12:30pm 12.1 WNW 7 11 1019.0 - 0.0 - - - - - - -
31/12:00pm 11.7 WNW 9 12 1019.8 - 0.0 - - - - - - -
31/11:30am 11.3 WNW 10 14 1020.1 - 0.0 - - - - - - -
31/11:00am 11.5 WNW 11 15 1020.4 - 0.0 - - - - - - -
31/10:30am 10.6 WNW 12 16 1020.5 - 0.0 - - - - - - -
31/10:00am 10.3 WNW 11 14 1020.3 - 0.0 - - - - - - -
31/09:30am 9.1 WNW 10 13 1020.3 - 0.0 - - - - - - -
31/09:00am 8.7 NW 8 11 1020.2 - 0.4 - - - - - - -
31/08:30am 7.9 NW 7 8 1020.0 - 0.4 - - - - - - -
31/08:00am 6.0 NNW 5 6 1019.6 - 0.4 - - - - - - -
31/07:30am 5.5 WNW 2 5 1019.5 - 0.4 - - - - - - -
31/07:00am 5.5 WNW 6 8 1019.1 - 0.4 - - - - - - -
31/06:30am 6.1 W 7 11 1018.7 - 0.4 - - - - - - -
31/06:00am 5.8 WNW 7 9 1018.3 - 0.4 - - - - - - -
31/05:30am 5.6 WNW 8 9 1018.2 - 0.4 - - - - - - -
31/05:00am 5.6 WNW 7 8 1017.8 - 0.4 - - - - - - -
31/04:30am 5.8 WNW 9 10 1017.6 - 0.4 - - - - - - -
31/04:00am 6.0 WNW 8 9 1017.5 - 0.4 - - - - - - -
31/03:30am 6.4 WNW 9 10 1017.2 - 0.4 - - - - - - -
31/03:00am 7.3 WNW 9 11 1017.4 - 0.4 - - - - - - -
31/02:30am 7.5 NW 9 11 1017.1 - 0.4 - - - - - - -
31/02:00am 7.9 WNW 10 13 1017.0 - 0.4 - - - - - - -
31/01:30am 8.0 WNW 10 13 1016.6 - 0.4 - - - - - - -
31/01:00am 8.3 WNW 11 15 1016.3 - 0.4 - - - - - - -
31/12:30am 8.3 WNW 15 22 1015.9 - 0.4 - - - - - - -
31/12:00am 8.9 W 14 20 1015.7 - 0.4 - - - - - - -
 
Date/Time
EST
Temp

°C
Wind Pressure Rain
since 9am
mm
Weather Cloud Vis
km
Sea
Height
m
Swell
Dir
 
Speed
knots
Gust
knots
hPa Trend Height
m
Period
s
Dir
30/11:30pm 9.1 W 14 20 1015.2 - 0.4 - - - - - - -
30/11:00pm 8.7 W 17 24 1014.9 - 0.4 - - - - - - -
30/10:31pm 9.4 W 19 31 1014.6 - 0.0 - - - - - - -
30/10:30pm 9.8 W 19 27 1014.6 - 0.0 - - - - - - -
30/10:29pm 9.9 W 19 27 1014.6 - 0.0 - - - - - - -
30/10:09pm 10.6 WNW 20 30 1013.7 - 0.0 - - - - - - -
30/10:00pm 10.7 WNW 22 30 1013.5 - 0.0 - - - - - - -
30/09:30pm 11.8 WNW 20 30 1012.7 - 0.0 - - - - - - -
30/09:08pm 12.0 NW 19 29 1012.4 - 0.0 - - - - - - -
30/09:00pm 11.9 NW 17 23 1012.2 - 0.0 - - - - - - -
30/08:30pm 12.0 NW 16 24 1011.9 - 0.0 - - - - - - -
30/08:00pm 12.3 NW 17 27 1011.2 - 0.0 - - - - - - -
30/07:57pm 12.3 NW 17 27 1011.2 - 0.0 - - - - - - -
30/07:30pm 12.2 NW 13 20 1011.2 - 0.0 - - - - - - -
30/07:09pm 12.5 NW 18 28 1010.8 - 0.0 - - - - - - -
30/07:00pm 12.6 NW 18 24 1010.6 - 0.0 - - - - - - -
30/06:37pm 13.0 NW 17 27 1010.4 - 0.0 - - - - - - -
30/06:30pm 12.9 NW 15 22 1010.4 - 0.0 - - - - - - -
30/06:00pm 13.1 NW 14 20 1009.8 - 0.0 - - - - - - -
30/05:30pm 12.8 NNW 13 19 1009.8 - 0.0 - - - - - - -
30/05:00pm 12.9 NW 17 24 1010.6 - 0.0 - - - - - - -
30/04:49pm 12.8 NNW 15 25 1010.9 - 0.0 - - - - - - -
30/04:30pm 12.9 NW 14 21 1011.0 - 0.0 - - - - - - -
30/04:00pm 13.1 NW 8 15 1011.8 - 0.0 - - - - - - -
30/03:30pm 12.3 N 5 11 1011.9 - 0.0 - - - - - - -
30/03:00pm 11.8 NE 6 9 1012.1 - 0.0 - - - - - - -
30/02:30pm 12.3 NNE 9 13 1012.7 - 0.0 - - - - - - -
30/02:00pm 12.0 N 11 15 1013.3 - 0.0 - - - - - - -
30/01:30pm 12.3 N 9 13 1014.1 - 0.0 - - - - - - -
30/01:00pm 13.1 N 10 14 1014.3 - 0.0 - - - - - - -
30/12:30pm 13.1 N 11 14 1015.2 - 0.0 - - - - - - -
30/12:00pm 12.9 N 11 15 1016.2 - 0.0 - - - - - - -
30/11:30am 13.0 N 11 15 1017.1 - 0.0 - - - - - - -
30/11:00am 13.2 N 7 10 1018.2 - 0.0 - - - - - - -
30/10:30am 12.2 N 8 10 1018.7 - 0.0 - - - - - - -
30/10:00am 11.3 N 9 11 1019.1 - 0.0 - - - - - - -
30/09:30am 10.4 NNE 6 8 1019.6 - 0.0 - - - - - - -
30/09:00am 8.6 NE 7 9 1019.8 - 0.0 - - - - - - -
30/08:30am 4.9 NE 5 6 1020.2 - 0.0 - - - - - - -
30/08:00am 1.7 NE 5 6 1020.6 - 0.0 - - - - - - -
30/07:30am 1.0 NE 5 6 1020.9 - 0.0 - - - - - - -
30/07:00am 1.0 N 4 5 1021.2 - 0.0 - - - - - - -
30/06:30am 0.6 NNE 7 8 1021.4 - 0.0 - - - - - - -
30/06:00am 0.4 N 1 4 1021.7 - 0.0 - - - - - - -
30/05:30am 0.4 CALM 0 4 1022.2 - 0.0 - - - - - - -
30/05:00am 1.1 NE 4 5 1022.3 - 0.0 - - - - - - -
30/04:30am 2.0 N 4 4 1022.6 - 0.0 - - - - - - -
30/04:00am 1.6 NNE 5 6 1022.8 - 0.0 - - - - - - -
30/03:30am 1.8 NNE 8 9 1023.0 - 0.0 - - - - - - -
30/03:00am 2.1 NNE 7 9 1023.8 - 0.0 - - - - - - -
30/02:30am 2.0 NNE 5 6 1024.6 - 0.0 - - - - - - -
30/02:00am 2.5 NNE 5 7 1025.0 - 0.0 - - - - - - -
30/01:30am 3.0 NNE 6 7 1025.4 - 0.0 - - - - - - -
30/01:00am 3.9 NNE 5 7 1025.8 - 0.0 - - - - - - -
30/12:30am 4.8 NNE 5 6 1026.2 - 0.0 - - - - - - -
30/12:00am 5.6 NNE 5 6 1026.7 - 0.0 - - - - - - -
 
Date/Time
EST
Temp

°C
Wind Pressure Rain
since 9am
mm
Weather Cloud Vis
km
Sea
Height
m
Swell
Dir
 
Speed
knots
Gust
knots
hPa Trend Height
m
Period
s
Dir
29/11:30pm 5.7 NE 4 5 1026.9 - 0.0 - - - - - - -
29/11:00pm 6.5 ENE 5 5 1027.0 - 0.0 - - - - - - -
29/10:30pm 6.0 NNW 4 6 1027.4 - 0.0 - - - - - - -
29/10:00pm 7.1 NW 5 6 1027.6 - 0.0 - - - - - - -
29/09:30pm 8.3 NNW 5 6 1027.8 - 0.0 - - - - - - -
29/09:00pm 8.1 NNW 7 8 1028.1 - 0.0 - - - - - - -
29/08:30pm 7.7 N 5 7 1027.7 - 0.0 - - - - - - -
29/08:00pm 7.9 N 5 6 1028.1 - 0.0 - - - - - - -
29/07:30pm 7.4 CALM 0 0 1028.2 - 0.0 - - - - - - -
29/07:00pm 7.4 N 4 5 1028.1 - 0.0 - - - - - - -
29/06:30pm 7.1 NNE 5 5 1028.2 - 0.0 - - - - - - -
29/06:00pm 7.5 NE 4 6 1027.9 - 0.0 - - - - - - -
29/05:30pm 7.8 NNE 4 6 1027.8 - 0.0 - - - - - - -
29/05:00pm 10.2 WSW 5 6 1028.0 - 0.0 - - - - - - -
29/04:30pm 11.2 SW 3 4 1028.1 - 0.0 - - - - - - -
29/04:00pm 12.2 W 6 8 1028.5 - 0.0 - - - - - - -
29/03:30pm 12.2 W 4 6 1028.7 - 0.0 - - - - - - -
29/03:00pm 12.3 W 5 7 1028.8 - 0.0 - - - - - - -
29/02:30pm 12.5 WNW 6 8 1028.9 - 0.0 - - - - - - -
29/02:00pm 12.4 WNW 7 10 1029.2 - 0.0 - - - - - - -
29/01:30pm 12.5 WNW 10 14 1029.7 - 0.0 - - - - - - -
29/01:00pm 12.6 WNW 9 13 1030.3 - 0.0 - - - - - - -
29/12:30pm 12.7 WNW 11 14 1030.8 - 0.0 - - - - - - -
29/12:00pm 13.2 WNW 10 17 1031.1 - 0.0 - - - - - - -
29/11:30am 12.5 WNW 9 12 1031.8 - 0.0 - - - - - - -
29/11:00am 12.3 NW 7 9 1032.3 - 0.0 - - - - - - -
29/10:30am 12.0 WNW 7 10 1032.5 - 0.0 - - - - - - -
29/10:00am 11.9 NNW 6 9 1032.8 - 0.0 - - - - - - -
29/09:30am 10.8 NW 3 6 1033.0 - 0.0 - - - - - - -
29/09:00am 9.6 CALM 0 0 1032.9 - 0.0 - - - - - - -
29/08:30am 9.2 NNW 2 4 1032.9 - 0.0 - - - - - - -
29/08:00am 7.5 NNW 3 5 1032.9 - 0.0 - - - - - - -
29/07:30am 7.2 NW 5 6 1032.6 - 0.0 - - - - - - -
29/07:00am 7.7 NW 6 7 1032.7 - 0.0 - - - - - - -
29/06:30am 8.2 NW 7 8 1032.4 - 0.0 - - - - - - -
29/06:00am 7.5 NW 5 6 1032.2 - 0.0 - - - - - - -
29/05:30am 7.1 WNW 5 6 1032.1 - 0.0 - - - - - - -
29/05:00am 6.7 NNW 4 5 1031.8 - 0.0 - - - - - - -
29/04:30am 6.6 NNW 5 6 1032.2 - 0.0 - - - - - - -
29/04:00am 5.9 NNW 3 4 1032.3 - 0.0 - - - - - - -
29/03:30am 5.7 N 3 5 1032.4 - 0.0 - - - - - - -
29/03:00am 5.4 NNE 5 7 1032.4 - 0.0 - - - - - - -
29/02:30am 4.4 NNE 4 5 1032.5 - 0.0 - - - - - - -
29/02:00am 3.9 N 5 5 1032.5 - 0.0 - - - - - - -
29/01:30am 6.1 NNW 4 5 1032.9 - 0.0 - - - - - - -
29/01:00am 7.3 N 6 6 1032.9 - 0.0 - - - - - - -
29/12:30am 7.9 NW 6 7 1032.9 - 0.0 - - - - - - -
29/12:00am 5.6 NNW 5 7 1033.2 - 0.0 - - - - - - -

Other Formats:

Comma delimited format used in spreadsheet applications
http://www.bom.gov.au/fwo/IDV60701/IDV60701.95890.axf

JavaScript Object Notation format (JSON) in row-major order
http://www.bom.gov.au/fwo/IDV60701/IDV60701.95890.json